createdAt,value
2022-12-08T00:01:35.505Z,88.75
2022-12-08T00:04:05.074Z,88.06
2022-12-08T00:06:53.837Z,88.61
2022-12-08T00:09:24.058Z,88.47
2022-12-08T00:11:54.678Z,89.04
2022-12-08T00:14:25.919Z,87.99
2022-12-08T00:16:54.340Z,87.77
2022-12-08T00:19:22.767Z,87.11
2022-12-08T00:21:52.665Z,88.43
2022-12-08T00:24:21.912Z,87.13
2022-12-08T00:26:50.486Z,87.69
2022-12-08T00:29:18.808Z,87.48
2022-12-08T00:31:46.747Z,86.79
2022-12-08T00:34:15.565Z,87.24
2022-12-08T00:36:43.930Z,87.14
2022-12-08T00:39:15.317Z,86.83
2022-12-08T00:42:00.669Z,87.23
2022-12-08T00:44:28.938Z,86.79
2022-12-08T00:46:56.964Z,86.11
2022-12-08T00:49:25.399Z,87.04
2022-12-08T00:51:53.461Z,85.84
2022-12-08T00:54:23.962Z,86.69
2022-12-08T00:56:52.412Z,85.96
2022-12-08T00:59:20.262Z,86.93
2022-12-08T01:01:49.103Z,86.68
2022-12-08T01:04:18.733Z,86.25
2022-12-08T01:06:47.441Z,86.79
2022-12-08T01:09:16.907Z,86.72
2022-12-08T01:11:46.783Z,86.65
2022-12-08T01:14:15.431Z,86.48
2022-12-08T01:16:44.224Z,86.83
2022-12-08T01:19:13.324Z,85.61
2022-12-08T01:21:41.975Z,85.64
2022-12-08T01:24:12.811Z,85.55
2022-12-08T01:26:40.920Z,86.77
2022-12-08T01:29:10.858Z,86.40
2022-12-08T01:31:39.158Z,87.16
2022-12-08T01:34:08.039Z,87.48
2022-12-08T01:36:38.260Z,87.92
2022-12-08T01:39:08.887Z,89.05
2022-12-08T01:41:39.321Z,89.30
2022-12-08T01:44:40.576Z,89.09
2022-12-08T01:47:10.474Z,88.21
2022-12-08T01:49:38.739Z,88.63
2022-12-08T01:52:12.285Z,88.29
2022-12-08T01:54:44.276Z,87.76
2022-12-08T01:57:15.661Z,88.24
2022-12-08T01:59:47.955Z,88.29
2022-12-08T02:02:17.434Z,87.90
2022-12-08T02:04:45.441Z,88.33
2022-12-08T02:07:15.658Z,88.29
2022-12-08T02:09:43.947Z,88.62
2022-12-08T02:12:12.856Z,88.54
2022-12-08T02:14:41.028Z,88.98
2022-12-08T02:17:26.341Z,88.78
2022-12-08T02:20:21.626Z,88.07
2022-12-08T02:22:55.744Z,88.28
2022-12-08T02:25:33.377Z,88.16
2022-12-08T02:28:09.481Z,87.90
2022-12-08T02:30:48.571Z,88.24
2022-12-08T02:34:01.746Z,88.04
2022-12-08T02:36:40.954Z,88.30
2022-12-08T02:39:19.397Z,87.71
2022-12-08T02:41:54.844Z,88.15
2022-12-08T02:44:29.021Z,88.58
2022-12-08T02:47:00.574Z,88.27
2022-12-08T02:49:34.460Z,87.79
2022-12-08T02:52:07.483Z,87.96
2022-12-08T02:54:37.201Z,88.35
2022-12-08T02:57:22.699Z,87.57
2022-12-08T03:00:06.061Z,88.45
2022-12-08T03:02:45.502Z,88.11
2022-12-08T03:05:34.689Z,87.84
2022-12-08T03:08:09.914Z,87.69
2022-12-08T03:10:44.001Z,87.22
2022-12-08T03:13:16.648Z,86.82
2022-12-08T03:15:47.922Z,87.27
2022-12-08T03:18:17.760Z,86.87
2022-12-08T03:20:48.997Z,86.67
2022-12-08T03:23:19.768Z,86.59
2022-12-08T03:25:54.604Z,86.46
2022-12-08T03:28:22.582Z,86.40
2022-12-08T03:30:56.701Z,87.04
2022-12-08T03:33:28.854Z,86.47
2022-12-08T03:36:00.620Z,86.12
2022-12-08T03:38:38.872Z,85.99
2022-12-08T03:41:22.142Z,86.36
2022-12-08T03:43:51.735Z,86.25
2022-12-08T03:48:48.793Z,86.08
2022-12-08T03:51:18.582Z,85.69
2022-12-08T03:53:47.365Z,86.41
2022-12-08T03:56:20.560Z,86.38
2022-12-08T03:58:48.523Z,85.86
2022-12-08T04:01:16.394Z,86.19
2022-12-08T04:03:44.367Z,86.14
2022-12-08T04:06:12.396Z,85.86
2022-12-08T04:08:42.030Z,86.48
2022-12-08T04:11:10.687Z,86.03
2022-12-08T04:13:40.324Z,86.02
2022-12-08T04:16:09.605Z,86.07
2022-12-08T04:18:37.589Z,86.12
2022-12-08T04:21:05.969Z,86.54
2022-12-08T04:23:33.852Z,86.18
2022-12-08T04:26:03.136Z,85.85
2022-12-08T04:28:31.103Z,86.18
2022-12-08T04:30:59.176Z,86.09
2022-12-08T04:33:27.382Z,86.12
2022-12-08T04:35:55.301Z,86.30
2022-12-08T04:38:23.349Z,86.23
2022-12-08T04:40:51.235Z,85.66
2022-12-08T04:43:20.495Z,86.55
2022-12-08T04:45:48.508Z,86.19
2022-12-08T04:48:16.404Z,85.91
2022-12-08T04:50:46.185Z,86.48
2022-12-08T04:53:14.780Z,86.36
2022-12-08T04:55:44.775Z,86.58
2022-12-08T04:58:14.713Z,85.97
2022-12-08T05:00:44.854Z,87.53
2022-12-08T05:03:13.364Z,86.59
2022-12-08T05:05:42.181Z,86.34
2022-12-08T05:08:11.339Z,86.13
2022-12-08T05:10:39.572Z,86.43
2022-12-08T05:13:07.547Z,86.55
2022-12-08T05:15:35.587Z,87.07
2022-12-08T05:18:06.152Z,86.71
2022-12-08T05:20:34.068Z,86.92
2022-12-08T05:23:01.978Z,86.44
2022-12-08T05:25:29.924Z,86.62
2022-12-08T05:28:17.496Z,87.04
2022-12-08T05:30:45.809Z,87.14
2022-12-08T05:33:15.299Z,86.93
2022-12-08T05:35:43.278Z,87.05
2022-12-08T05:38:11.409Z,87.33
2022-12-08T05:40:39.974Z,87.45
2022-12-08T05:43:08.192Z,88.07
2022-12-08T05:45:36.147Z,87.82
2022-12-08T05:48:04.394Z,88.73
2022-12-08T05:50:33.728Z,87.76
2022-12-08T05:53:05.479Z,88.81
2022-12-08T05:55:33.499Z,88.16
2022-12-08T05:58:07.487Z,88.51
2022-12-08T06:00:36.060Z,88.22
2022-12-08T06:03:04.185Z,87.90
2022-12-08T06:05:35.287Z,88.44
2022-12-08T06:08:03.658Z,88.27
2022-12-08T06:10:31.593Z,88.00
2022-12-08T06:12:59.574Z,87.68
2022-12-08T06:15:27.619Z,88.02
2022-12-08T06:17:55.504Z,88.06
2022-12-08T06:20:35.488Z,88.82
2022-12-08T06:23:03.493Z,88.88
2022-12-08T06:25:31.666Z,89.85
2022-12-08T06:27:59.521Z,89.62
2022-12-08T06:30:28.544Z,89.37
2022-12-08T06:32:56.626Z,90.11
2022-12-08T06:35:24.505Z,90.28
2022-12-08T06:37:53.717Z,89.83
2022-12-08T06:40:21.622Z,89.89
2022-12-08T06:42:49.540Z,90.47
2022-12-08T06:45:19.244Z,90.92
2022-12-08T06:47:47.140Z,89.98
2022-12-08T06:50:15.494Z,90.43
2022-12-08T06:52:54.320Z,91.04
2022-12-08T06:58:18.433Z,91.17
2022-12-08T07:00:46.625Z,91.71
2022-12-08T07:03:14.813Z,93.61
2022-12-08T07:05:42.759Z,91.64
2022-12-08T07:08:10.991Z,91.16
2022-12-08T07:10:40.345Z,92.39
2022-12-08T07:13:08.225Z,91.82
2022-12-08T07:15:36.590Z,91.76
2022-12-08T07:18:04.624Z,92.70
2022-12-08T07:20:32.703Z,92.67
2022-12-08T07:23:00.845Z,93.18
2022-12-08T07:25:29.095Z,92.99
2022-12-08T07:27:58.537Z,93.80
2022-12-08T07:30:26.586Z,94.12
2022-12-08T07:32:54.646Z,93.42
2022-12-08T07:35:23.163Z,93.77
2022-12-08T07:37:51.150Z,93.69
2022-12-08T07:40:19.265Z,94.79
2022-12-08T07:42:47.206Z,94.31
2022-12-08T07:45:16.734Z,94.76
2022-12-08T07:47:44.633Z,93.69
2022-12-08T07:50:12.586Z,93.80
2022-12-08T07:52:40.655Z,94.37
2022-12-08T07:55:09.500Z,94.36
2022-12-08T07:57:37.472Z,94.53
2022-12-08T08:00:07.107Z,94.43
2022-12-08T08:02:41.088Z,94.55
2022-12-08T08:05:10.340Z,94.35
2022-12-08T08:07:38.645Z,93.72
2022-12-08T08:10:08.084Z,94.52
2022-12-08T08:12:36.838Z,94.33
2022-12-08T08:15:07.340Z,94.10
2022-12-08T08:17:36.491Z,93.86
2022-12-08T08:20:07.731Z,94.90
2022-12-08T08:22:36.711Z,94.58
2022-12-08T08:25:05.623Z,93.96
2022-12-08T08:27:34.258Z,94.19
2022-12-08T08:30:03.048Z,94.07
2022-12-08T08:32:34.225Z,94.48
2022-12-08T08:35:02.284Z,94.08
2022-12-08T08:37:32.355Z,94.37
2022-12-08T08:40:00.356Z,94.60
2022-12-08T08:42:28.586Z,95.42
2022-12-08T08:44:56.614Z,94.44
2022-12-08T08:47:24.596Z,95.05
2022-12-08T08:49:52.706Z,94.71
2022-12-08T08:52:20.654Z,94.45
2022-12-08T08:54:49.907Z,94.85
2022-12-08T08:57:23.651Z,94.83
2022-12-08T08:59:53.558Z,94.56
2022-12-08T09:02:22.183Z,94.25
2022-12-08T09:04:50.448Z,94.39
2022-12-08T09:07:18.446Z,94.01
2022-12-08T09:09:46.448Z,94.40
2022-12-08T09:12:16.362Z,93.85
2022-12-08T09:14:44.356Z,94.71
2022-12-08T09:17:12.478Z,93.63
2022-12-08T09:19:40.461Z,93.35
2022-12-08T09:22:08.398Z,93.48
2022-12-08T09:24:36.341Z,93.19
2022-12-08T09:27:04.452Z,93.67
2022-12-08T09:29:36.164Z,94.05
2022-12-08T09:32:04.809Z,94.21
2022-12-08T09:34:32.810Z,93.55
2022-12-08T09:37:00.829Z,93.42
2022-12-08T09:39:31.680Z,93.69
2022-12-08T09:42:02.013Z,93.32
2022-12-08T09:44:55.167Z,92.88
2022-12-08T09:47:25.293Z,93.24
2022-12-08T09:50:00.738Z,92.84
2022-12-08T09:52:33.559Z,92.47
2022-12-08T09:55:05.549Z,92.76
2022-12-08T09:57:33.632Z,93.04
2022-12-08T10:00:07.389Z,92.06
2022-12-08T10:02:35.703Z,91.95
2022-12-08T10:05:03.666Z,91.77
2022-12-08T10:07:40.006Z,91.88
2022-12-08T10:10:17.670Z,92.44
2022-12-08T10:12:52.850Z,92.17
2022-12-08T10:15:47.975Z,91.41
2022-12-08T10:18:18.839Z,91.16
2022-12-08T10:20:48.984Z,91.42
2022-12-08T10:23:26.118Z,91.09
2022-12-08T10:25:59.811Z,91.76
2022-12-08T10:28:27.768Z,92.00
2022-12-08T10:30:57.221Z,91.32
2022-12-08T10:33:25.409Z,91.27
2022-12-08T10:35:56.317Z,90.87
2022-12-08T10:38:28.143Z,91.24
2022-12-08T10:41:04.378Z,91.56
2022-12-08T10:43:34.262Z,91.17
2022-12-08T10:46:15.783Z,90.07
2022-12-08T10:48:53.672Z,91.88
2022-12-08T10:51:29.019Z,90.42
2022-12-08T10:53:57.819Z,90.08
2022-12-08T10:56:28.501Z,90.01
2022-12-08T10:59:15.708Z,89.75
2022-12-08T11:01:48.542Z,89.73
2022-12-08T11:04:19.750Z,88.74
2022-12-08T11:06:50.050Z,89.45
2022-12-08T11:09:32.628Z,88.78
2022-12-08T11:12:01.634Z,88.30
2022-12-08T11:14:31.832Z,89.00
2022-12-08T11:17:08.146Z,88.62
2022-12-08T11:19:39.470Z,88.52
2022-12-08T11:22:22.338Z,88.46
2022-12-08T11:24:59.406Z,88.91
2022-12-08T11:27:27.751Z,88.71
2022-12-08T11:29:55.936Z,88.13
2022-12-08T11:32:25.486Z,87.88
2022-12-08T11:35:00.047Z,88.10
2022-12-08T11:37:35.125Z,87.32
2022-12-08T11:40:08.661Z,88.64
2022-12-08T11:42:45.690Z,86.90
2022-12-08T11:45:20.825Z,86.65
2022-12-08T11:47:58.618Z,87.17
2022-12-08T11:50:30.703Z,86.58
2022-12-08T11:53:00.904Z,86.97
2022-12-08T11:55:37.179Z,85.28
2022-12-08T11:58:16.721Z,86.21
2022-12-08T12:00:44.775Z,86.49
2022-12-08T12:03:25.230Z,85.14
2022-12-08T12:06:37.583Z,84.85
2022-12-08T12:09:10.508Z,85.83
2022-12-08T12:12:07.612Z,85.81
2022-12-08T12:14:57.855Z,86.88
2022-12-08T12:17:40.633Z,84.90
2022-12-08T12:20:20.424Z,86.42
2022-12-08T12:22:53.995Z,85.61
2022-12-08T12:25:24.999Z,85.78
2022-12-08T12:27:57.804Z,86.74
2022-12-08T12:30:27.622Z,86.84
2022-12-08T12:32:58.221Z,86.35
2022-12-08T12:35:34.520Z,85.89
2022-12-08T12:38:26.533Z,87.31
2022-12-08T12:40:59.341Z,86.53
2022-12-08T12:43:31.643Z,87.12
2022-12-08T12:46:39.957Z,86.66
2022-12-08T12:49:46.084Z,86.58
2022-12-08T12:52:49.361Z,87.07
2022-12-08T12:55:46.446Z,86.20
2022-12-08T12:58:38.773Z,86.20
2022-12-08T13:01:38.209Z,86.27
2022-12-08T13:04:09.343Z,86.24
2022-12-08T13:06:42.179Z,86.80
2022-12-08T13:09:23.754Z,86.22
2022-12-08T13:11:55.698Z,85.92
2022-12-08T13:14:38.502Z,86.70
2022-12-08T13:17:13.285Z,86.78
2022-12-08T13:19:45.367Z,87.06
2022-12-08T13:22:50.931Z,85.92
2022-12-08T13:25:58.684Z,86.50
2022-12-08T13:28:29.919Z,85.89
2022-12-08T13:30:59.620Z,86.04
2022-12-08T13:33:31.355Z,85.77
2022-12-08T13:36:11.647Z,85.97
2022-12-08T13:38:41.065Z,86.65
2022-12-08T13:41:18.603Z,86.25
2022-12-08T13:44:31.110Z,86.04
2022-12-08T13:56:51.500Z,87.11
2022-12-08T13:58:21.000Z,87.52
2022-12-08T14:01:02.796Z,87.54
2022-12-08T14:03:31.368Z,86.39
2022-12-08T14:06:15.593Z,86.70
2022-12-08T14:09:10.438Z,86.57
2022-12-08T14:11:38.366Z,86.86
2022-12-08T14:14:09.231Z,87.48
2022-12-08T14:16:41.456Z,87.97
2022-12-08T14:19:18.491Z,87.86
2022-12-08T14:21:55.541Z,87.83
2022-12-08T14:24:24.391Z,88.07
2022-12-08T14:26:55.264Z,88.20
2022-12-08T14:29:37.806Z,87.77
2022-12-08T14:32:19.821Z,88.57
2022-12-08T14:34:53.734Z,88.18
2022-12-08T14:37:22.941Z,87.17
2022-12-08T14:39:52.183Z,87.75
2022-12-08T14:42:24.498Z,88.50
2022-12-08T14:45:04.968Z,88.95
2022-12-08T14:47:35.716Z,88.30
2022-12-08T14:50:26.392Z,89.25
2022-12-08T14:52:54.633Z,89.06
2022-12-08T14:55:22.683Z,88.97
2022-12-08T14:57:50.728Z,89.49
2022-12-08T15:00:23.179Z,89.47
2022-12-08T15:02:56.985Z,89.84
2022-12-08T15:05:33.132Z,90.03
2022-12-08T15:08:04.637Z,90.14
2022-12-08T15:10:37.898Z,90.16
2022-12-08T15:13:21.040Z,90.03
2022-12-08T15:15:51.751Z,90.52
2022-12-08T15:18:29.663Z,90.04
2022-12-08T15:21:03.302Z,90.34
2022-12-08T15:24:38.414Z,90.29
2022-12-08T15:27:06.353Z,90.54
2022-12-08T15:29:34.305Z,90.71
2022-12-08T15:32:02.754Z,90.99
2022-12-08T15:34:32.506Z,91.78
2022-12-08T15:37:00.492Z,91.80
2022-12-08T15:39:33.975Z,91.85
2022-12-08T15:42:03.051Z,91.87
2022-12-08T15:44:32.733Z,92.19
2022-12-08T15:47:01.437Z,92.94
2022-12-08T15:49:29.616Z,92.79
2022-12-08T15:52:10.631Z,93.20
2022-12-08T15:54:40.225Z,93.33
2022-12-08T15:57:25.067Z,93.38
2022-12-08T16:00:05.424Z,93.02
2022-12-08T16:02:49.487Z,93.20
2022-12-08T16:08:44.573Z,93.34
2022-12-08T16:12:03.829Z,93.68
2022-12-08T16:14:47.098Z,94.16
2022-12-08T16:16:51.534Z,93.72
2022-12-08T16:19:19.530Z,93.92
2022-12-08T16:24:37.375Z,94.32
2022-12-08T16:29:53.434Z,94.31
2022-12-08T16:32:21.684Z,93.99
2022-12-08T16:34:51.039Z,94.12
2022-12-08T16:37:21.007Z,94.11
2022-12-08T16:39:51.915Z,94.17
2022-12-08T16:42:41.716Z,95.48
2022-12-08T16:45:12.638Z,95.10
2022-12-08T16:47:42.497Z,95.51
2022-12-08T16:50:13.043Z,95.85
2022-12-08T16:52:42.749Z,95.54
2022-12-08T16:55:14.356Z,95.29
2022-12-08T19:07:59.205Z,98.34
2022-12-08T19:10:27.878Z,99.27
2022-12-08T19:12:56.081Z,98.60
2022-12-08T19:15:28.894Z,97.72
2022-12-08T19:18:01.178Z,97.94
2022-12-08T19:20:29.963Z,97.02
2022-12-08T19:22:59.390Z,98.09
2022-12-08T19:25:33.032Z,97.75
2022-12-08T19:28:01.432Z,99.02
2022-12-08T19:30:30.184Z,97.79
2022-12-08T19:32:58.347Z,98.61
2022-12-08T19:35:26.658Z,98.12
2022-12-08T19:37:55.061Z,98.84
2022-12-08T19:40:38.491Z,98.57
2022-12-08T19:43:23.867Z,98.04
2022-12-08T19:45:51.908Z,98.04
2022-12-08T19:48:19.384Z,97.94
2022-12-08T19:50:46.892Z,97.94
2022-12-08T19:53:18.770Z,97.90
2022-12-08T19:55:48.819Z,98.56
2022-12-08T19:58:17.055Z,97.81
2022-12-08T20:00:45.326Z,99.45
2022-12-08T20:03:16.231Z,98.08
2022-12-08T20:05:45.487Z,97.95
2022-12-08T20:08:15.698Z,97.88
2022-12-08T20:10:55.960Z,98.38
2022-12-08T20:13:37.968Z,99.11
2022-12-08T20:16:05.464Z,98.16
2022-12-08T20:18:34.671Z,98.19
2022-12-08T20:21:02.848Z,98.22
2022-12-08T20:23:31.169Z,98.86
2022-12-08T20:26:00.684Z,98.68
2022-12-08T20:28:28.679Z,98.31
2022-12-08T20:30:56.816Z,98.83
2022-12-08T20:33:25.158Z,98.70
2022-12-08T20:36:00.198Z,98.45
2022-12-08T20:38:28.413Z,100.00
2022-12-08T20:40:57.842Z,100.00
2022-12-08T20:43:28.043Z,98.70
2022-12-08T20:45:56.101Z,98.27
2022-12-08T20:48:25.099Z,99.22
2022-12-08T20:50:53.439Z,98.93
2022-12-08T20:53:21.586Z,99.61
2022-12-08T20:55:49.730Z,99.06
2022-12-08T20:58:17.846Z,98.31
2022-12-08T21:00:50.349Z,98.37
2022-12-08T21:03:18.913Z,98.10
2022-12-08T21:05:50.385Z,98.58
2022-12-08T21:08:19.555Z,99.13
2022-12-08T21:10:54.532Z,99.26
2022-12-08T21:13:22.720Z,99.18
2022-12-08T21:15:52.226Z,99.85
2022-12-08T21:18:20.899Z,99.38
2022-12-08T21:20:49.320Z,99.39
2022-12-08T21:23:18.279Z,98.99
2022-12-08T21:25:48.217Z,100.00
2022-12-08T21:28:16.643Z,98.83
2022-12-08T21:30:45.086Z,99.42
2022-12-08T21:33:14.997Z,98.97
2022-12-08T21:35:43.222Z,100.00
2022-12-08T21:38:11.761Z,99.45
2022-12-08T21:40:39.979Z,99.75
2022-12-08T21:43:08.401Z,99.82
2022-12-08T21:45:36.550Z,99.66
2022-12-08T21:48:10.735Z,99.44
2022-12-08T21:50:41.419Z,99.56
2022-12-08T21:53:09.791Z,98.83
2022-12-08T21:55:38.035Z,98.88
2022-12-08T21:58:06.309Z,98.97
2022-12-08T22:00:34.957Z,99.78
2022-12-08T22:03:03.555Z,99.15
2022-12-08T22:05:32.228Z,99.36
2022-12-08T22:08:02.236Z,99.60
2022-12-08T22:10:30.605Z,98.77
2022-12-08T22:12:59.232Z,99.03
2022-12-08T22:15:29.961Z,99.01
2022-12-08T22:18:02.643Z,98.55
2022-12-08T22:20:33.979Z,99.98
2022-12-08T22:23:04.955Z,99.79
2022-12-08T22:25:33.022Z,98.84
2022-12-08T22:28:01.203Z,98.87
2022-12-08T22:30:32.875Z,99.01
2022-12-08T22:33:06.273Z,98.83
2022-12-08T22:35:34.547Z,99.39
2022-12-08T22:38:04.040Z,99.03
2022-12-08T22:40:32.222Z,99.25
2022-12-08T22:43:00.768Z,99.07
2022-12-08T22:45:31.239Z,99.10
2022-12-08T22:47:59.415Z,99.25
2022-12-08T22:50:27.508Z,98.83
2022-12-08T22:52:55.753Z,98.36
2022-12-08T22:55:25.467Z,98.20
2022-12-08T22:57:54.239Z,99.10
2022-12-08T23:00:22.401Z,99.34
2022-12-08T23:02:50.810Z,99.47
2022-12-08T23:05:19.222Z,99.39
2022-12-08T23:07:47.988Z,99.48
2022-12-08T23:10:16.268Z,99.40
2022-12-08T23:12:45.867Z,99.69
2022-12-08T23:15:14.352Z,98.65
2022-12-08T23:17:42.883Z,98.45
2022-12-08T23:20:11.903Z,98.85
2022-12-08T23:22:40.262Z,100.00
2022-12-08T23:25:09.520Z,99.41
2022-12-08T23:27:38.668Z,99.27
2022-12-08T23:30:09.987Z,98.61
2022-12-08T23:32:38.712Z,98.55
2022-12-08T23:35:08.508Z,98.54
2022-12-08T23:37:37.430Z,98.87
2022-12-08T23:40:07.847Z,99.45
2022-12-08T23:42:37.685Z,99.40
2022-12-08T23:45:08.429Z,99.31
2022-12-08T23:47:38.167Z,99.16
2022-12-08T23:50:07.969Z,99.54
2022-12-08T23:52:39.317Z,98.90
2022-12-08T23:55:09.451Z,98.55
2022-12-08T23:57:38.625Z,98.42
